createdAt,value
2019-01-29T00:00:56.369Z,99966.20
2019-01-29T00:03:26.062Z,99976.03
2019-01-29T00:05:55.659Z,99972.56
2019-01-29T00:08:25.307Z,99976.37
2019-01-29T00:10:54.778Z,99972.38
2019-01-29T00:13:24.248Z,99974.30
2019-01-29T00:15:53.733Z,99974.55
2019-01-29T00:18:23.220Z,99977.13
2019-01-29T00:20:52.781Z,99974.26
2019-01-29T00:23:22.326Z,99977.13
2019-01-29T00:25:51.880Z,99971.99
2019-01-29T00:28:21.362Z,99975.31
2019-01-29T00:30:51.016Z,99975.53
2019-01-29T00:33:20.499Z,99978.74
2019-01-29T00:35:49.990Z,99980.18
2019-01-29T00:38:19.485Z,99978.94
2019-01-29T00:40:49.122Z,99988.13
2019-01-29T00:43:18.608Z,99987.00
2019-01-29T00:45:48.095Z,99992.73
2019-01-29T00:48:17.593Z,99995.19
2019-01-29T00:50:47.620Z,99988.89
2019-01-29T00:53:17.115Z,99994.80
2019-01-29T00:55:46.666Z,99998.76
2019-01-29T00:58:16.246Z,100001.36
2019-01-29T01:00:45.753Z,99999.70
2019-01-29T01:03:15.383Z,99995.71
2019-01-29T01:05:44.868Z,100001.41
2019-01-29T01:08:14.530Z,100005.70
2019-01-29T01:10:44.019Z,100007.63
2019-01-29T01:13:13.535Z,99999.44
2019-01-29T01:15:43.038Z,100000.95
2019-01-29T01:18:12.617Z,100003.92
2019-01-29T01:20:42.329Z,100005.20
2019-01-29T01:23:11.872Z,100006.03
2019-01-29T01:25:41.382Z,100004.45
2019-01-29T01:28:10.936Z,100010.44
2019-01-29T01:30:40.508Z,100016.59
2019-01-29T01:33:09.986Z,100024.66
2019-01-29T01:35:39.465Z,100032.69
2019-01-29T01:38:09.044Z,100030.56
2019-01-29T01:40:38.533Z,100035.05
2019-01-29T01:43:08.018Z,100031.49
2019-01-29T01:45:37.542Z,100035.83
2019-01-29T01:48:07.050Z,100036.63
2019-01-29T01:50:36.617Z,100038.89
2019-01-29T01:53:06.224Z,100040.92
2019-01-29T01:55:35.716Z,100037.27
2019-01-29T01:58:05.270Z,100037.56
2019-01-29T02:00:35.587Z,100044.02
2019-01-29T02:03:05.450Z,100039.19
2019-01-29T02:05:34.963Z,100039.55
2019-01-29T02:08:04.976Z,100039.11
2019-01-29T02:10:34.532Z,100036.07
2019-01-29T02:13:04.259Z,100043.66
2019-01-29T02:15:33.883Z,100041.28
2019-01-29T02:18:03.415Z,100046.01
2019-01-29T02:20:32.911Z,100049.94
2019-01-29T02:23:07.703Z,100051.14
2019-01-29T02:25:33.760Z,100060.40
2019-01-29T02:28:03.273Z,100051.83
2019-01-29T02:30:32.840Z,100054.05
2019-01-29T02:33:02.408Z,100052.31
2019-01-29T02:35:31.921Z,100057.55
2019-01-29T02:38:01.415Z,100058.73
2019-01-29T02:40:31.098Z,100056.22
2019-01-29T02:43:00.659Z,100064.25
2019-01-29T02:45:30.242Z,100064.50
2019-01-29T02:47:59.798Z,100059.23
2019-01-29T02:50:29.349Z,100060.95
2019-01-29T02:52:58.835Z,100063.72
2019-01-29T02:55:28.357Z,100063.94
2019-01-29T02:57:57.923Z,100061.45
2019-01-29T03:00:28.621Z,100059.58
2019-01-29T03:02:58.100Z,100065.34
2019-01-29T03:05:27.580Z,100062.62
2019-01-29T03:07:57.139Z,100065.41
2019-01-29T03:10:28.154Z,100065.21
2019-01-29T03:12:57.711Z,100069.28
2019-01-29T03:15:30.826Z,100073.06
2019-01-29T03:18:00.715Z,100065.97
2019-01-29T03:20:30.277Z,100068.42
2019-01-29T03:22:59.904Z,100066.36
2019-01-29T03:25:29.373Z,100065.31
2019-01-29T03:27:58.893Z,100078.48
2019-01-29T03:30:28.450Z,100069.26
2019-01-29T03:32:57.944Z,100071.66
2019-01-29T03:35:27.488Z,100066.47
2019-01-29T03:37:57.049Z,100071.50
2019-01-29T03:40:28.355Z,100066.91
2019-01-29T03:42:57.901Z,100076.73
2019-01-29T03:45:28.204Z,100072.48
2019-01-29T03:47:57.799Z,100078.53
2019-01-29T03:50:29.149Z,100076.47
2019-01-29T03:52:58.994Z,100086.27
2019-01-29T03:55:28.591Z,100077.98
2019-01-29T03:57:58.221Z,100075.91
2019-01-29T04:00:29.452Z,100086.12
2019-01-29T04:02:59.763Z,100075.78
2019-01-29T04:05:29.348Z,100082.08
2019-01-29T04:07:58.967Z,100079.05
2019-01-29T04:10:28.477Z,100076.02
2019-01-29T04:12:58.092Z,100078.70
2019-01-29T04:15:27.588Z,100083.44
2019-01-29T04:17:59.110Z,100093.17
2019-01-29T04:20:28.820Z,100082.33
2019-01-29T04:22:58.391Z,100087.02
2019-01-29T04:25:27.955Z,100080.70
2019-01-29T04:27:57.458Z,100086.89
2019-01-29T04:30:26.959Z,100088.63
2019-01-29T04:32:56.434Z,100090.62
2019-01-29T04:35:25.916Z,100087.69
2019-01-29T04:37:55.454Z,100091.43
2019-01-29T04:40:25.028Z,100092.93
2019-01-29T04:42:54.527Z,100084.32
2019-01-29T04:45:24.152Z,100084.46
2019-01-29T04:47:53.774Z,100088.30
2019-01-29T04:50:23.476Z,100089.84
2019-01-29T04:52:53.032Z,100086.23
2019-01-29T04:55:22.858Z,100083.08
2019-01-29T04:57:52.497Z,100076.53
2019-01-29T05:00:28.485Z,100084.91
2019-01-29T05:02:57.968Z,100078.80
2019-01-29T05:05:28.130Z,100077.64
2019-01-29T05:07:57.634Z,100078.56
2019-01-29T05:10:27.143Z,100074.26
2019-01-29T05:12:56.609Z,100068.39
2019-01-29T05:15:26.087Z,100069.26
2019-01-29T05:17:55.591Z,100063.14
2019-01-29T05:20:25.928Z,100065.05
2019-01-29T05:22:55.435Z,100075.46
2019-01-29T05:25:24.937Z,100074.02
2019-01-29T05:27:54.464Z,100072.11
2019-01-29T05:30:27.056Z,100068.48
2019-01-29T05:32:56.611Z,100070.00
2019-01-29T05:35:26.169Z,100071.28
2019-01-29T05:37:55.672Z,100070.45
2019-01-29T05:40:25.547Z,100070.22
2019-01-29T05:42:55.111Z,100070.29
2019-01-29T05:45:25.103Z,100072.78
2019-01-29T05:47:54.596Z,100071.03
2019-01-29T05:50:24.174Z,100066.52
2019-01-29T05:52:53.711Z,100065.73
2019-01-29T05:55:23.213Z,100071.03
2019-01-29T05:57:52.677Z,100067.68
2019-01-29T06:00:27.426Z,100066.14
2019-01-29T06:02:57.169Z,100059.91
2019-01-29T06:05:26.897Z,100059.69
2019-01-29T06:07:56.362Z,100055.44
2019-01-29T06:10:25.938Z,100052.55
2019-01-29T06:12:55.516Z,100056.44
2019-01-29T06:15:26.769Z,100051.91
2019-01-29T06:17:56.320Z,100051.53
2019-01-29T06:20:31.971Z,100054.30
2019-01-29T06:23:01.538Z,100056.16
2019-01-29T06:25:31.152Z,100054.47
2019-01-29T06:28:00.721Z,100059.92
2019-01-29T06:30:30.300Z,100059.80
2019-01-29T06:32:59.851Z,100065.05
2019-01-29T06:35:29.403Z,100063.02
2019-01-29T06:37:59.053Z,100062.90
2019-01-29T06:40:29.608Z,100067.32
2019-01-29T06:42:59.153Z,100070.13
2019-01-29T06:45:28.714Z,100066.28
2019-01-29T06:47:58.279Z,100072.14
2019-01-29T06:50:30.659Z,100067.32
2019-01-29T06:53:00.133Z,100073.25
2019-01-29T06:55:29.654Z,100075.77
2019-01-29T06:57:59.219Z,100069.88
2019-01-29T07:00:31.230Z,100080.78
2019-01-29T07:03:02.135Z,100075.38
2019-01-29T07:05:31.594Z,100081.06
2019-01-29T07:08:01.261Z,100078.39
2019-01-29T07:10:30.942Z,100088.28
2019-01-29T07:13:00.545Z,100083.74
2019-01-29T07:15:48.427Z,100086.49
2019-01-29T07:18:22.423Z,100087.41
2019-01-29T07:20:51.989Z,100087.17
2019-01-29T07:23:21.477Z,100090.15
2019-01-29T07:25:51.040Z,100088.72
2019-01-29T07:28:20.526Z,100091.70
2019-01-29T07:30:50.139Z,100092.71
2019-01-29T07:33:19.685Z,100088.51
2019-01-29T07:35:49.183Z,100087.02
2019-01-29T07:38:18.681Z,100089.09
2019-01-29T07:40:48.315Z,100087.59
2019-01-29T07:43:17.881Z,100087.81
2019-01-29T07:45:59.470Z,100087.81
2019-01-29T07:48:28.957Z,100091.78
2019-01-29T07:50:58.596Z,100089.75
2019-01-29T07:53:28.223Z,100091.41
2019-01-29T07:55:57.771Z,100087.81
2019-01-29T07:58:27.336Z,100086.90
2019-01-29T08:00:56.886Z,100079.38
2019-01-29T08:03:26.431Z,100080.94
2019-01-29T08:05:55.911Z,100083.30
2019-01-29T08:08:25.568Z,100080.91
2019-01-29T08:10:55.319Z,100079.51
2019-01-29T08:13:24.938Z,100084.22
2019-01-29T08:15:54.493Z,100080.03
2019-01-29T08:18:24.059Z,100075.66
2019-01-29T08:20:53.651Z,100072.07
2019-01-29T08:23:23.210Z,100075.72
2019-01-29T08:25:52.798Z,100073.61
2019-01-29T08:28:22.275Z,100079.32
2019-01-29T08:30:51.831Z,100080.03
2019-01-29T08:33:21.323Z,100078.13
2019-01-29T08:35:50.896Z,100085.16
2019-01-29T08:38:20.382Z,100082.25
2019-01-29T08:40:49.884Z,100075.74
2019-01-29T08:43:19.439Z,100084.65
2019-01-29T08:45:48.987Z,100073.65
2019-01-29T08:48:18.804Z,100076.91
2019-01-29T08:50:48.421Z,100073.81
2019-01-29T08:53:17.932Z,100068.86
2019-01-29T08:55:47.770Z,100061.23
2019-01-29T08:58:17.276Z,100056.92
2019-01-29T09:00:46.899Z,100061.33
2019-01-29T09:03:16.700Z,100058.53
2019-01-29T09:05:46.253Z,100055.77
2019-01-29T09:08:15.845Z,100054.16
2019-01-29T09:10:45.327Z,100052.61
2019-01-29T09:13:14.886Z,100047.80
2019-01-29T09:15:44.391Z,100043.77
2019-01-29T09:18:13.880Z,100049.83
2019-01-29T09:20:43.401Z,100050.59
2019-01-29T09:23:12.895Z,100050.05
2019-01-29T09:25:42.368Z,100039.00
2019-01-29T09:28:11.854Z,100042.56
2019-01-29T09:30:41.415Z,100041.27
2019-01-29T09:33:11.125Z,100031.42
2019-01-29T09:35:40.675Z,100031.58
2019-01-29T09:38:10.176Z,100033.03
2019-01-29T09:40:39.876Z,100030.07
2019-01-29T09:43:09.426Z,100028.09
2019-01-29T09:45:38.995Z,100026.06
2019-01-29T09:48:08.564Z,100024.39
2019-01-29T09:50:38.111Z,100022.45
2019-01-29T09:53:07.744Z,100027.36
2019-01-29T09:55:37.377Z,100019.41
2019-01-29T09:58:06.926Z,100020.92
2019-01-29T10:00:39.420Z,100021.54
2019-01-29T10:03:09.143Z,100012.53
2019-01-29T10:05:38.972Z,100009.09
2019-01-29T10:08:08.725Z,100010.56
2019-01-29T10:10:38.463Z,100002.17
2019-01-29T10:13:08.010Z,100005.20
2019-01-29T10:15:39.323Z,100000.49
2019-01-29T10:18:08.950Z,99998.64
2019-01-29T10:20:38.735Z,99988.86
2019-01-29T10:23:08.211Z,99990.14
2019-01-29T10:25:38.272Z,99989.97
2019-01-29T10:28:07.921Z,99981.80
2019-01-29T10:30:37.603Z,99985.22
2019-01-29T10:33:07.214Z,99978.27
2019-01-29T10:35:36.916Z,99983.80
2019-01-29T10:38:06.556Z,99977.66
2019-01-29T10:40:36.105Z,99972.06
2019-01-29T10:43:06.084Z,99964.27
2019-01-29T10:45:35.697Z,99964.59
2019-01-29T10:48:05.502Z,99968.39
2019-01-29T10:50:35.127Z,99955.03
2019-01-29T10:53:04.953Z,99950.92
2019-01-29T10:55:34.423Z,99952.02
2019-01-29T10:58:04.000Z,99949.09
2019-01-29T11:00:38.155Z,99952.53
2019-01-29T11:03:08.940Z,99944.26
2019-01-29T11:05:38.697Z,99943.84
2019-01-29T11:08:08.237Z,99935.41
2019-01-29T11:10:37.800Z,99925.48
2019-01-29T11:13:07.540Z,99927.75
2019-01-29T11:15:41.432Z,99921.03
2019-01-29T11:18:13.813Z,99921.78
2019-01-29T11:20:43.616Z,99921.67
2019-01-29T11:23:13.158Z,99915.38
2019-01-29T11:25:42.786Z,99915.16
2019-01-29T11:28:12.360Z,99911.94
2019-01-29T11:30:42.125Z,99910.24
2019-01-29T11:33:11.657Z,99893.29
2019-01-29T11:35:41.445Z,99898.38
2019-01-29T11:38:11.509Z,99893.22
2019-01-29T11:40:41.199Z,99895.95
2019-01-29T11:43:10.771Z,99887.20
2019-01-29T11:45:45.059Z,99876.63
2019-01-29T11:48:14.614Z,99867.66
2019-01-29T11:50:44.186Z,99869.05
2019-01-29T11:53:13.892Z,99863.32
2019-01-29T11:55:43.414Z,99855.41
2019-01-29T11:58:12.955Z,99857.95
2019-01-29T12:00:44.433Z,99849.27
2019-01-29T12:03:13.911Z,99854.03
2019-01-29T12:05:43.397Z,99852.17
2019-01-29T12:08:13.417Z,99847.63
2019-01-29T12:10:43.268Z,99840.44
2019-01-29T12:13:12.754Z,99842.52
2019-01-29T12:15:42.446Z,99841.27
2019-01-29T12:18:12.171Z,99847.80
2019-01-29T12:20:41.704Z,99832.23
2019-01-29T12:23:11.285Z,99836.55
2019-01-29T12:25:40.910Z,99829.16
2019-01-29T12:28:10.488Z,99823.23
2019-01-29T12:30:40.015Z,99818.25
2019-01-29T12:33:10.007Z,99818.00
2019-01-29T12:35:39.668Z,99807.77
2019-01-29T12:38:09.203Z,99804.38
2019-01-29T12:40:38.834Z,99807.80
2019-01-29T12:43:08.526Z,99814.39
2019-01-29T12:45:38.109Z,99807.74
2019-01-29T12:48:08.297Z,99801.97
2019-01-29T12:50:39.812Z,99786.08
2019-01-29T12:53:13.748Z,99794.55
2019-01-29T12:55:43.307Z,99783.74
2019-01-29T12:58:12.772Z,99780.59
2019-01-29T13:00:44.144Z,99777.66
2019-01-29T13:03:13.684Z,99770.88
2019-01-29T13:05:43.276Z,99764.59
2019-01-29T13:08:13.987Z,99757.05
2019-01-29T13:10:43.634Z,99759.62
2019-01-29T13:13:14.020Z,99757.77
2019-01-29T13:15:43.801Z,99754.05
2019-01-29T13:18:13.417Z,99758.25
2019-01-29T13:20:43.066Z,99747.88
2019-01-29T13:23:12.606Z,99744.88
2019-01-29T13:25:42.247Z,99751.28
2019-01-29T13:28:11.869Z,99747.02
2019-01-29T13:30:41.451Z,99741.27
2019-01-29T13:33:12.833Z,99737.59
2019-01-29T13:35:42.533Z,99744.86
2019-01-29T13:38:12.331Z,99740.57
2019-01-29T13:40:42.450Z,99739.31
2019-01-29T13:43:12.021Z,99727.59
2019-01-29T13:45:42.023Z,99731.45
2019-01-29T13:48:12.209Z,99725.30
2019-01-29T13:50:51.759Z,99720.83
2019-01-29T13:53:21.311Z,99723.90
2019-01-29T13:55:50.834Z,99716.48
2019-01-29T13:58:21.311Z,99716.00
2019-01-29T14:00:50.870Z,99710.78
2019-01-29T14:03:20.507Z,99704.81
2019-01-29T14:05:50.066Z,99704.19
2019-01-29T14:08:19.685Z,99695.67
2019-01-29T14:10:49.291Z,99699.84
2019-01-29T14:13:18.909Z,99695.42
2019-01-29T14:15:50.070Z,99693.06
2019-01-29T14:18:20.315Z,99691.56
2019-01-29T14:20:50.058Z,99692.19
2019-01-29T14:23:19.564Z,99692.98
2019-01-29T14:25:49.109Z,99685.06
2019-01-29T14:28:18.674Z,99687.55
2019-01-29T14:30:48.284Z,99678.94
2019-01-29T14:33:21.114Z,99671.79
2019-01-29T14:35:53.640Z,99679.48
2019-01-29T14:38:31.019Z,99673.91
2019-01-29T14:41:00.847Z,99676.59
2019-01-29T14:43:38.937Z,99672.50
2019-01-29T14:46:08.575Z,99669.48
2019-01-29T14:48:38.100Z,99675.89
2019-01-29T14:51:07.694Z,99662.91
2019-01-29T14:53:37.280Z,99659.89
2019-01-29T14:56:06.836Z,99665.27
2019-01-29T14:58:36.459Z,99663.26
2019-01-29T15:01:07.278Z,99660.81
2019-01-29T15:03:36.834Z,99654.51
2019-01-29T15:06:07.490Z,99650.75
2019-01-29T15:08:37.125Z,99641.30
2019-01-29T15:11:06.841Z,99638.48
2019-01-29T15:13:36.380Z,99636.92
2019-01-29T15:16:11.633Z,99641.03
2019-01-29T15:18:42.868Z,99631.67
2019-01-29T15:21:12.449Z,99625.02
2019-01-29T15:23:42.017Z,99623.69
2019-01-29T15:26:11.494Z,99619.48
2019-01-29T15:28:41.011Z,99616.91
2019-01-29T15:31:10.546Z,99612.49
2019-01-29T15:33:41.024Z,99613.80
2019-01-29T15:36:10.658Z,99612.98
2019-01-29T15:38:40.148Z,99602.27
2019-01-29T15:41:09.865Z,99597.78
2019-01-29T15:43:39.359Z,99598.48
2019-01-29T15:46:08.923Z,99595.16
2019-01-29T15:48:40.077Z,99590.83
2019-01-29T15:51:09.677Z,99594.94
2019-01-29T15:53:39.400Z,99586.73
2019-01-29T15:56:08.970Z,99579.09
2019-01-29T15:58:38.611Z,99569.50
2019-01-29T16:01:08.373Z,99570.70
2019-01-29T16:03:38.005Z,99567.42
2019-01-29T16:06:07.565Z,99563.22
2019-01-29T16:08:37.131Z,99563.35
2019-01-29T16:11:06.882Z,99562.73
2019-01-29T16:13:36.522Z,99561.03
2019-01-29T16:16:06.242Z,99567.26
2019-01-29T16:18:36.842Z,99563.77
2019-01-29T16:21:06.393Z,99555.70
2019-01-29T16:23:35.951Z,99551.16
2019-01-29T16:26:07.325Z,99548.80
2019-01-29T16:28:36.952Z,99549.33
2019-01-29T16:31:06.905Z,99544.20
2019-01-29T16:33:36.407Z,99543.67
2019-01-29T16:36:05.958Z,99537.18
2019-01-29T16:38:35.467Z,99537.05
2019-01-29T16:41:08.691Z,99530.05
2019-01-29T16:43:38.180Z,99526.39
2019-01-29T16:46:07.865Z,99524.92
2019-01-29T16:48:37.350Z,99523.95
2019-01-29T16:51:07.157Z,99520.92
2019-01-29T16:53:36.641Z,99511.58
2019-01-29T16:56:06.386Z,99508.70
2019-01-29T16:58:36.116Z,99502.48
2019-01-29T17:01:06.507Z,99497.04
2019-01-29T17:03:35.999Z,99493.43
2019-01-29T17:06:06.474Z,99496.30
2019-01-29T17:08:36.053Z,99491.46
2019-01-29T17:11:06.775Z,99486.45
2019-01-29T17:13:36.363Z,99481.41
2019-01-29T17:16:05.926Z,99484.88
2019-01-29T17:18:35.472Z,99478.66
2019-01-29T17:21:05.033Z,99470.80
2019-01-29T17:23:34.658Z,99471.34
2019-01-29T17:26:04.534Z,99469.97
2019-01-29T17:28:34.144Z,99468.37
2019-01-29T17:31:03.682Z,99461.11
2019-01-29T17:33:33.336Z,99459.28
2019-01-29T17:36:02.887Z,99454.79
2019-01-29T17:38:32.459Z,99451.69
2019-01-29T17:41:02.044Z,99444.25
2019-01-29T17:43:31.605Z,99440.54
2019-01-29T17:46:01.155Z,99437.50
2019-01-29T17:48:30.665Z,99427.84
2019-01-29T17:51:00.247Z,99428.67
2019-01-29T17:53:29.762Z,99424.09
2019-01-29T17:55:59.245Z,99422.37
2019-01-29T17:58:28.846Z,99419.94
2019-01-29T18:01:00.323Z,99415.67
2019-01-29T18:03:29.877Z,99405.73
2019-01-29T18:05:59.433Z,99404.13
2019-01-29T18:08:28.993Z,99397.76
2019-01-29T18:10:58.560Z,99392.42
2019-01-29T18:13:28.081Z,99389.22
2019-01-29T18:15:57.552Z,99380.81
2019-01-29T18:18:27.086Z,99378.22
2019-01-29T18:20:56.658Z,99374.73
2019-01-29T18:23:26.384Z,99365.21
2019-01-29T18:25:56.010Z,99364.38
2019-01-29T18:28:25.539Z,99364.03
2019-01-29T18:30:55.163Z,99360.81
2019-01-29T18:33:24.731Z,99358.07
2019-01-29T18:35:54.293Z,99351.56
2019-01-29T18:38:23.848Z,99352.61
2019-01-29T18:40:54.065Z,99346.95
2019-01-29T18:43:23.591Z,99344.00
2019-01-29T18:45:53.208Z,99335.84
2019-01-29T18:48:23.215Z,99332.98
2019-01-29T18:50:52.766Z,99327.11
2019-01-29T18:53:22.330Z,99318.78
2019-01-29T18:55:51.870Z,99324.77
2019-01-29T18:58:21.387Z,99325.34
2019-01-29T19:00:54.762Z,99318.16
2019-01-29T19:03:22.251Z,99310.53
2019-01-29T19:05:51.881Z,99307.47
2019-01-29T19:08:21.432Z,99305.13
2019-01-29T19:10:50.931Z,99302.06
2019-01-29T19:13:20.500Z,99298.99
2019-01-29T19:15:50.120Z,99297.36
2019-01-29T19:18:19.726Z,99289.67
2019-01-29T19:20:49.243Z,99290.65
2019-01-29T19:23:18.776Z,99287.34
2019-01-29T19:25:48.336Z,99285.75
2019-01-29T19:28:21.975Z,99286.59
2019-01-29T19:30:49.204Z,99279.21
2019-01-29T19:33:18.792Z,99283.97
2019-01-29T19:35:48.451Z,99277.56
2019-01-29T19:38:18.033Z,99280.72
2019-01-29T19:40:47.536Z,99278.73
2019-01-29T19:43:17.222Z,99272.45
2019-01-29T19:45:46.816Z,99266.52
2019-01-29T19:48:16.419Z,99262.16
2019-01-29T19:50:45.915Z,99262.01
2019-01-29T19:53:15.401Z,99254.61
2019-01-29T19:55:45.049Z,99252.53
2019-01-29T19:58:14.631Z,99251.30
2019-01-29T20:00:44.719Z,99245.82
2019-01-29T20:03:14.297Z,99247.48
2019-01-29T20:05:43.872Z,99245.57
2019-01-29T20:08:13.435Z,99242.00
2019-01-29T20:10:43.093Z,99245.51
2019-01-29T20:13:12.657Z,99239.42
2019-01-29T20:15:42.168Z,99236.13
2019-01-29T20:18:11.719Z,99232.77
2019-01-29T20:20:42.465Z,99232.91
2019-01-29T20:23:12.019Z,99228.87
2019-01-29T20:25:41.651Z,99224.25
2019-01-29T20:28:11.317Z,99215.27
2019-01-29T20:30:41.890Z,99213.69
2019-01-29T20:33:11.540Z,99209.56
2019-01-29T20:35:41.014Z,99204.88
2019-01-29T20:38:10.735Z,99202.56
2019-01-29T20:40:40.230Z,99204.00
2019-01-29T20:43:09.778Z,99200.68
2019-01-29T20:45:39.379Z,99192.53
2019-01-29T20:48:10.426Z,99190.20
2019-01-29T20:50:39.986Z,99186.59
2019-01-29T20:53:09.474Z,99184.64
2019-01-29T20:55:38.968Z,99181.82
2019-01-29T20:58:08.561Z,99173.56
2019-01-29T21:00:41.962Z,99169.72
2019-01-29T21:03:11.555Z,99171.25
2019-01-29T21:05:41.211Z,99169.28
2019-01-29T21:08:10.895Z,99161.41
2019-01-29T21:10:40.394Z,99158.52
2019-01-29T21:13:10.923Z,99161.16
2019-01-29T21:15:40.786Z,99157.52
2019-01-29T21:18:10.427Z,99148.62
2019-01-29T21:20:39.973Z,99149.55
2019-01-29T21:23:09.669Z,99145.48
2019-01-29T21:25:39.225Z,99138.89
2019-01-29T21:28:08.792Z,99132.05
2019-01-29T21:30:43.703Z,99128.40
2019-01-29T21:33:12.535Z,99123.63
2019-01-29T21:35:42.193Z,99130.64
2019-01-29T21:38:11.774Z,99124.56
2019-01-29T21:40:41.382Z,99125.91
2019-01-29T21:43:11.046Z,99120.70
2019-01-29T21:45:40.699Z,99113.19
2019-01-29T21:48:10.299Z,99111.44
2019-01-29T21:50:40.446Z,99111.91
2019-01-29T21:53:09.993Z,99106.73
2019-01-29T21:55:39.583Z,99098.02
2019-01-29T21:58:09.376Z,99097.70
2019-01-29T22:00:43.695Z,99093.16
2019-01-29T22:03:13.360Z,99084.55
2019-01-29T22:05:43.099Z,99084.36
2019-01-29T22:08:12.833Z,99077.81
2019-01-29T22:10:42.575Z,99074.12
2019-01-29T22:13:12.482Z,99062.75
2019-01-29T22:15:42.128Z,99071.30
2019-01-29T22:18:13.285Z,99060.31
2019-01-29T22:20:42.827Z,99053.30
2019-01-29T22:23:12.669Z,99049.30
2019-01-29T22:25:42.150Z,99052.77
2019-01-29T22:28:11.702Z,99046.72
2019-01-29T22:30:42.809Z,99042.30
2019-01-29T22:33:12.412Z,99034.70
2019-01-29T22:35:42.050Z,99028.73
2019-01-29T22:38:11.715Z,99023.63
2019-01-29T22:40:41.278Z,99017.63
2019-01-29T22:43:10.776Z,99014.16
2019-01-29T22:45:40.262Z,99009.17
2019-01-29T22:48:09.878Z,99000.38
2019-01-29T22:50:41.590Z,99001.27
2019-01-29T22:53:11.325Z,98995.76
2019-01-29T22:55:40.855Z,98998.75
2019-01-29T22:58:10.644Z,98994.66
2019-01-29T23:01:14.891Z,98983.66
2019-01-29T23:03:45.355Z,98981.45
2019-01-29T23:06:22.207Z,98981.08
2019-01-29T23:08:51.759Z,98972.38
2019-01-29T23:11:21.326Z,98963.80
2019-01-29T23:13:50.868Z,98961.09
2019-01-29T23:16:20.612Z,98957.83
2019-01-29T23:18:50.293Z,98954.84
2019-01-29T23:21:19.813Z,98951.91
2019-01-29T23:23:49.281Z,98944.31
2019-01-29T23:26:18.769Z,98942.63
2019-01-29T23:28:48.253Z,98932.22
2019-01-29T23:31:17.793Z,98932.08
2019-01-29T23:33:47.271Z,98927.53
2019-01-29T23:36:16.814Z,98922.16
2019-01-29T23:38:47.586Z,98909.11
2019-01-29T23:41:17.133Z,98902.98
2019-01-29T23:43:46.622Z,98896.56
2019-01-29T23:46:16.186Z,98887.77
2019-01-29T23:48:45.737Z,98885.59
2019-01-29T23:51:15.278Z,98888.55
2019-01-29T23:53:44.754Z,98879.96
2019-01-29T23:56:14.264Z,98883.72
2019-01-29T23:58:43.832Z,98872.28
